sensor_id;sensor_type;location;lat;lon;timestamp;pressure;altitude;pressure_sealevel;temperature;humidity
69749;BME280;57019;52.354;6.584;2022-12-18T00:00:42;102835.44;;;18.55;44.28
69749;BME280;57019;52.354;6.584;2022-12-18T00:03:07;102833.22;;;18.51;44.19
69749;BME280;57019;52.354;6.584;2022-12-18T00:05:33;102825.59;;;18.47;43.90
69749;BME280;57019;52.354;6.584;2022-12-18T00:07:58;102830.94;;;18.46;43.92
69749;BME280;57019;52.354;6.584;2022-12-18T00:10:23;102823.09;;;18.46;43.86
69749;BME280;57019;52.354;6.584;2022-12-18T00:12:48;102827.63;;;18.44;43.75
69749;BME280;57019;52.354;6.584;2022-12-18T00:15:14;102830.47;;;18.41;43.67
69749;BME280;57019;52.354;6.584;2022-12-18T00:17:39;102824.53;;;18.39;43.80
69749;BME280;57019;52.354;6.584;2022-12-18T00:20:05;102830.72;;;18.38;43.04
69749;BME280;57019;52.354;6.584;2022-12-18T00:22:30;102831.91;;;18.34;43.55
69749;BME280;57019;52.354;6.584;2022-12-18T00:24:56;102831.09;;;18.33;43.27
69749;BME280;57019;52.354;6.584;2022-12-18T00:27:21;102821.94;;;18.27;43.32
69749;BME280;57019;52.354;6.584;2022-12-18T00:29:48;102822.78;;;18.28;43.07
69749;BME280;57019;52.354;6.584;2022-12-18T00:32:13;102828.25;;;18.25;43.22
69749;BME280;57019;52.354;6.584;2022-12-18T00:34:38;102819.69;;;18.23;42.92
69749;BME280;57019;52.354;6.584;2022-12-18T00:37:04;102821.59;;;18.21;42.94
69749;BME280;57019;52.354;6.584;2022-12-18T00:39:29;102811.38;;;18.18;42.90
69749;BME280;57019;52.354;6.584;2022-12-18T00:41:54;102814.94;;;18.17;42.55
69749;BME280;57019;52.354;6.584;2022-12-18T00:44:38;102808.28;;;18.12;42.78
69749;BME280;57019;52.354;6.584;2022-12-18T00:47:03;102810.19;;;18.10;42.74
69749;BME280;57019;52.354;6.584;2022-12-18T00:49:29;102822.56;;;18.08;42.59
69749;BME280;57019;52.354;6.584;2022-12-18T00:51:54;102819.94;;;18.08;42.70
69749;BME280;57019;52.354;6.584;2022-12-18T00:54:19;102813.41;;;18.03;42.59
69749;BME280;57019;52.354;6.584;2022-12-18T00:56:45;102813.41;;;18.03;42.40
69749;BME280;57019;52.354;6.584;2022-12-18T00:59:10;102806.66;;;18.00;42.34
69749;BME280;57019;52.354;6.584;2022-12-18T01:01:36;102807.84;;;17.96;42.12
69749;BME280;57019;52.354;6.584;2022-12-18T01:04:02;102813.88;;;17.96;42.13
69749;BME280;57019;52.354;6.584;2022-12-18T01:06:27;102804.59;;;17.92;42.04
69749;BME280;57019;52.354;6.584;2022-12-18T01:08:53;102796.88;;;17.91;42.02
69749;BME280;57019;52.354;6.584;2022-12-18T01:11:19;102800.53;;;17.88;42.01
69749;BME280;57019;52.354;6.584;2022-12-18T01:13:45;102802.47;;;17.86;41.90
69749;BME280;57019;52.354;6.584;2022-12-18T01:16:12;102812.91;;;17.86;41.61
69749;BME280;57019;52.354;6.584;2022-12-18T01:18:38;102796.38;;;17.86;41.63
69749;BME280;57019;52.354;6.584;2022-12-18T01:21:08;102802.56;;;17.85;41.57
69749;BME280;57019;52.354;6.584;2022-12-18T01:23:33;102812.31;;;17.83;41.56
69749;BME280;57019;52.354;6.584;2022-12-18T01:26:07;102804.72;;;17.79;41.38
69749;BME280;57019;52.354;6.584;2022-12-18T01:28:33;102801.50;;;17.76;41.52
69749;BME280;57019;52.354;6.584;2022-12-18T01:31:09;102809.31;;;17.76;41.42
69749;BME280;57019;52.354;6.584;2022-12-18T01:33:35;102811.34;;;17.72;41.26
69749;BME280;57019;52.354;6.584;2022-12-18T01:36:00;102802.44;;;17.75;41.06
69749;BME280;57019;52.354;6.584;2022-12-18T01:38:25;102806.13;;;17.72;41.11
69749;BME280;57019;52.354;6.584;2022-12-18T01:40:57;102809.94;;;17.68;41.02
69749;BME280;57019;52.354;6.584;2022-12-18T01:43:39;102793.66;;;17.64;40.95
69749;BME280;57019;52.354;6.584;2022-12-18T01:46:05;102793.66;;;17.64;40.85
69749;BME280;57019;52.354;6.584;2022-12-18T01:48:30;102805.97;;;17.62;40.95
69749;BME280;57019;52.354;6.584;2022-12-18T01:50:56;102813.94;;;17.61;40.91
69749;BME280;57019;52.354;6.584;2022-12-18T01:53:22;102819.88;;;17.63;40.70
69749;BME280;57019;52.354;6.584;2022-12-18T01:55:54;102827.84;;;17.61;40.50
69749;BME280;57019;52.354;6.584;2022-12-18T01:58:27;102835.06;;;17.58;40.65
69749;BME280;57019;52.354;6.584;2022-12-18T02:00:54;102832.47;;;17.58;40.46
69749;BME280;57019;52.354;6.584;2022-12-18T02:03:20;102822.25;;;17.55;40.28
69749;BME280;57019;52.354;6.584;2022-12-18T02:09:02;102820.94;;;17.49;40.24
69749;BME280;57019;52.354;6.584;2022-12-18T02:17:04;102817.72;;;17.45;39.96
69749;BME280;57019;52.354;6.584;2022-12-18T02:27:45;102808.69;;;17.38;39.69
69749;BME280;57019;52.354;6.584;2022-12-18T02:30:12;102795.50;;;17.40;39.81
69749;BME280;57019;52.354;6.584;2022-12-18T02:32:41;102807.00;;;17.37;39.77
69749;BME280;57019;52.354;6.584;2022-12-18T02:35:11;102811.63;;;17.34;39.66
69749;BME280;57019;52.354;6.584;2022-12-18T02:37:39;102813.41;;;17.33;39.48
69749;BME280;57019;52.354;6.584;2022-12-18T02:40:07;102810.81;;;17.33;39.53
69749;BME280;57019;52.354;6.584;2022-12-18T02:42:46;102816.25;;;17.30;39.38
69749;BME280;57019;52.354;6.584;2022-12-18T02:45:11;102816.25;;;17.30;39.45
69749;BME280;57019;52.354;6.584;2022-12-18T02:47:41;102812.22;;;17.26;39.30
69749;BME280;57019;52.354;6.584;2022-12-18T02:53:09;102811.47;;;17.24;39.44
69749;BME280;57019;52.354;6.584;2022-12-18T02:58:46;102821.44;;;17.19;39.20
69749;BME280;57019;52.354;6.584;2022-12-18T03:04:42;102813.13;;;17.13;38.96
69749;BME280;57019;52.354;6.584;2022-12-18T03:07:16;102819.03;;;17.16;38.91
69749;BME280;57019;52.354;6.584;2022-12-18T03:09:48;102815.72;;;17.13;38.80
69749;BME280;57019;52.354;6.584;2022-12-18T03:17:23;102811.91;;;17.06;38.89
69749;BME280;57019;52.354;6.584;2022-12-18T03:19:51;102805.97;;;17.04;38.76
69749;BME280;57019;52.354;6.584;2022-12-18T03:22:19;102807.75;;;17.04;38.69
69749;BME280;57019;52.354;6.584;2022-12-18T03:24:46;102807.88;;;17.02;38.63
69749;BME280;57019;52.354;6.584;2022-12-18T03:27:15;102794.31;;;16.97;38.63
69749;BME280;57019;52.354;6.584;2022-12-18T03:29:46;102798.91;;;16.93;38.73
69749;BME280;57019;52.354;6.584;2022-12-18T03:32:23;102797.88;;;16.96;38.51
69749;BME280;57019;52.354;6.584;2022-12-18T03:34:52;102791.22;;;16.92;38.45
69749;BME280;57019;52.354;6.584;2022-12-18T03:37:19;102784.31;;;16.91;38.55
69749;BME280;57019;52.354;6.584;2022-12-18T03:39:44;102784.53;;;16.88;38.50
69749;BME280;57019;52.354;6.584;2022-12-18T03:47:53;102757.81;;;16.84;38.28
69749;BME280;57019;52.354;6.584;2022-12-18T03:53:55;102776.19;;;16.83;38.04
69749;BME280;57019;52.354;6.584;2022-12-18T03:56:22;102788.28;;;16.84;37.80
69749;BME280;57019;52.354;6.584;2022-12-18T03:58:52;102776.59;;;16.89;38.04
69749;BME280;57019;52.354;6.584;2022-12-18T04:01:20;102773.88;;;16.91;37.98
69749;BME280;57019;52.354;6.584;2022-12-18T04:04:08;102776.28;;;16.94;37.84
69749;BME280;57019;52.354;6.584;2022-12-18T04:06:35;102780.91;;;17.02;37.69
69749;BME280;57019;52.354;6.584;2022-12-18T04:09:01;102779.44;;;17.10;37.52
69749;BME280;57019;52.354;6.584;2022-12-18T04:11:27;102774.34;;;17.20;37.56
69749;BME280;57019;52.354;6.584;2022-12-18T04:13:56;102771.03;;;17.29;37.23
69749;BME280;57019;52.354;6.584;2022-12-18T04:16:22;102775.44;;;17.40;37.09
69749;BME280;57019;52.354;6.584;2022-12-18T04:18:48;102773.19;;;17.47;36.92
69749;BME280;57019;52.354;6.584;2022-12-18T04:21:13;102772.50;;;17.56;36.82
69749;BME280;57019;52.354;6.584;2022-12-18T04:23:38;102767.53;;;17.64;36.51
69749;BME280;57019;52.354;6.584;2022-12-18T04:26:04;102771.19;;;17.73;36.27
69749;BME280;57019;52.354;6.584;2022-12-18T04:28:29;102773.09;;;17.83;36.06
69749;BME280;57019;52.354;6.584;2022-12-18T04:30:54;102763.94;;;17.88;36.16
69749;BME280;57019;52.354;6.584;2022-12-18T04:33:20;102766.34;;;17.91;35.85
69749;BME280;57019;52.354;6.584;2022-12-18T04:35:45;102769.81;;;17.92;35.86
69749;BME280;57019;52.354;6.584;2022-12-18T04:38:10;102761.22;;;17.90;35.73
69749;BME280;57019;52.354;6.584;2022-12-18T04:40:36;102764.81;;;17.89;35.65
69749;BME280;57019;52.354;6.584;2022-12-18T04:43:03;102757.31;;;17.84;35.77
69749;BME280;57019;52.354;6.584;2022-12-18T04:45:30;102763.59;;;17.81;35.78
69749;BME280;57019;52.354;6.584;2022-12-18T04:48:11;102762.16;;;17.77;35.70
69749;BME280;57019;52.354;6.584;2022-12-18T04:50:36;102754.81;;;17.71;35.67
69749;BME280;57019;52.354;6.584;2022-12-18T04:53:01;102753.41;;;17.67;35.92
69749;BME280;57019;52.354;6.584;2022-12-18T04:55:27;102754.59;;;17.63;35.92
69749;BME280;57019;52.354;6.584;2022-12-18T04:57:52;102743.53;;;17.59;35.84
69749;BME280;57019;52.354;6.584;2022-12-18T05:00:18;102740.44;;;17.54;35.89
69749;BME280;57019;52.354;6.584;2022-12-18T05:02:44;102750.31;;;17.51;35.96
69749;BME280;57019;52.354;6.584;2022-12-18T05:05:09;102753.84;;;17.50;35.95
69749;BME280;57019;52.354;6.584;2022-12-18T05:07:34;102758.13;;;17.51;35.57
69749;BME280;57019;52.354;6.584;2022-12-18T05:10:00;102760.75;;;17.51;35.84
69749;BME280;57019;52.354;6.584;2022-12-18T05:12:25;102757.91;;;17.54;35.67
69749;BME280;57019;52.354;6.584;2022-12-18T05:14:51;102757.31;;;17.61;35.54
69749;BME280;57019;52.354;6.584;2022-12-18T05:17:16;102763.13;;;17.65;35.33
69749;BME280;57019;52.354;6.584;2022-12-18T05:19:42;102765.28;;;17.71;35.17
69749;BME280;57019;52.354;6.584;2022-12-18T05:22:07;102768.38;;;17.76;35.02
69749;BME280;57019;52.354;6.584;2022-12-18T05:24:32;102768.69;;;17.83;34.92
69749;BME280;57019;52.354;6.584;2022-12-18T05:26:58;102762.88;;;17.91;34.64
69749;BME280;57019;52.354;6.584;2022-12-18T05:29:23;102771.00;;;17.99;34.34
69749;BME280;57019;52.354;6.584;2022-12-18T05:31:49;102768.59;;;18.07;34.52
69749;BME280;57019;52.354;6.584;2022-12-18T05:34:14;102776.69;;;18.16;34.21
69749;BME280;57019;52.354;6.584;2022-12-18T05:36:39;102777.72;;;18.24;34.10
69749;BME280;57019;52.354;6.584;2022-12-18T05:39:05;102781.53;;;18.31;33.89
69749;BME280;57019;52.354;6.584;2022-12-18T05:41:32;102773.06;;;18.39;33.68
69749;BME280;57019;52.354;6.584;2022-12-18T05:43:58;102776.88;;;18.46;33.51
69749;BME280;57019;52.354;6.584;2022-12-18T05:46:23;102777.78;;;18.57;33.33
69749;BME280;57019;52.354;6.584;2022-12-18T05:48:49;102778.25;;;18.62;33.32
69749;BME280;57019;52.354;6.584;2022-12-18T05:51:16;102787.97;;;18.71;33.13
69749;BME280;57019;52.354;6.584;2022-12-18T05:53:43;102796.84;;;18.80;33.34
69749;BME280;57019;52.354;6.584;2022-12-18T05:56:14;102800.75;;;18.86;32.71
69749;BME280;57019;52.354;6.584;2022-12-18T05:58:40;102801.94;;;18.93;32.69
69749;BME280;57019;52.354;6.584;2022-12-18T06:03:35;102795.44;;;19.08;32.38
69749;BME280;57019;52.354;6.584;2022-12-18T06:06:01;102793.84;;;19.17;32.25
69749;BME280;57019;52.354;6.584;2022-12-18T06:08:26;102796.19;;;19.20;31.73
69749;BME280;57019;52.354;6.584;2022-12-18T06:10:52;102807.94;;;19.26;31.92
69749;BME280;57019;52.354;6.584;2022-12-18T06:13:18;102801.13;;;19.35;31.49
69749;BME280;57019;52.354;6.584;2022-12-18T06:15:44;102814.16;;;19.46;31.42
69749;BME280;57019;52.354;6.584;2022-12-18T06:18:09;102816.38;;;19.50;31.47
69749;BME280;57019;52.354;6.584;2022-12-18T06:20:35;102816.69;;;19.57;31.11
69749;BME280;57019;52.354;6.584;2022-12-18T06:23:02;102818.94;;;19.62;31.18
69749;BME280;57019;52.354;6.584;2022-12-18T06:25:27;102812.22;;;19.69;31.13
69749;BME280;57019;52.354;6.584;2022-12-18T06:27:52;102813.75;;;19.72;30.85
69749;BME280;57019;52.354;6.584;2022-12-18T06:30:18;102806.91;;;19.80;30.95
69749;BME280;57019;52.354;6.584;2022-12-18T06:32:43;102803.31;;;19.81;30.69
69749;BME280;57019;52.354;6.584;2022-12-18T06:35:09;102799.47;;;19.86;30.69
69749;BME280;57019;52.354;6.584;2022-12-18T06:37:35;102800.91;;;19.99;30.43
69749;BME280;57019;52.354;6.584;2022-12-18T06:40:00;102794.44;;;20.04;30.43
69749;BME280;57019;52.354;6.584;2022-12-18T06:42:26;102788.78;;;20.08;30.22
69749;BME280;57019;52.354;6.584;2022-12-18T06:44:51;102786.28;;;20.07;30.35
69749;BME280;57019;52.354;6.584;2022-12-18T06:47:16;102773.88;;;19.99;30.27
69749;BME280;57019;52.354;6.584;2022-12-18T06:49:42;102773.56;;;19.92;30.29
69749;BME280;57019;52.354;6.584;2022-12-18T06:52:08;102771.59;;;19.85;30.28
69749;BME280;57019;52.354;6.584;2022-12-18T06:54:33;102768.19;;;19.73;30.66
69749;BME280;57019;52.354;6.584;2022-12-18T06:56:59;102765.41;;;19.64;30.43
69749;BME280;57019;52.354;6.584;2022-12-18T06:59:24;102757.78;;;19.52;30.79
69749;BME280;57019;52.354;6.584;2022-12-18T07:01:49;102753.44;;;19.41;30.94
69749;BME280;57019;52.354;6.584;2022-12-18T07:04:15;102759.34;;;19.33;31.01
69749;BME280;57019;52.354;6.584;2022-12-18T07:06:40;102758.63;;;19.31;30.98
69749;BME280;57019;52.354;6.584;2022-12-18T07:09:05;102754.75;;;19.25;30.94
69749;BME280;57019;52.354;6.584;2022-12-18T07:11:33;102750.47;;;19.24;30.92
69749;BME280;57019;52.354;6.584;2022-12-18T07:13:58;102747.28;;;19.21;30.77
69749;BME280;57019;52.354;6.584;2022-12-18T07:16:24;102751.53;;;19.22;30.85
69749;BME280;57019;52.354;6.584;2022-12-18T07:18:49;102736.56;;;19.24;30.84
69749;BME280;57019;52.354;6.584;2022-12-18T07:21:16;102740.13;;;19.23;30.83
69749;BME280;57019;52.354;6.584;2022-12-18T07:23:42;102728.44;;;19.27;30.71
69749;BME280;57019;52.354;6.584;2022-12-18T07:26:12;102726.94;;;19.34;30.46
69749;BME280;57019;52.354;6.584;2022-12-18T07:28:39;102728.59;;;19.35;30.56
69749;BME280;57019;52.354;6.584;2022-12-18T07:31:06;102735.97;;;19.41;30.16
69749;BME280;57019;52.354;6.584;2022-12-18T07:33:33;102738.84;;;19.48;30.46
69749;BME280;57019;52.354;6.584;2022-12-18T07:36:03;102745.91;;;19.47;30.41
69749;BME280;57019;52.354;6.584;2022-12-18T07:38:30;102750.22;;;19.58;30.38
69749;BME280;57019;52.354;6.584;2022-12-18T07:41:07;102752.75;;;19.70;30.42
69749;BME280;57019;52.354;6.584;2022-12-18T07:43:33;102742.28;;;19.79;30.11
69749;BME280;57019;52.354;6.584;2022-12-18T07:45:59;102743.47;;;19.87;30.06
69749;BME280;57019;52.354;6.584;2022-12-18T07:48:24;102756.59;;;19.87;30.20
69749;BME280;57019;52.354;6.584;2022-12-18T07:50:50;102755.75;;;19.96;29.88
69749;BME280;57019;52.354;6.584;2022-12-18T07:53:31;102747.81;;;20.07;29.68
69749;BME280;57019;52.354;6.584;2022-12-18T07:56:02;102753.44;;;20.12;29.70
69749;BME280;57019;52.354;6.584;2022-12-18T07:58:28;102745.50;;;20.24;29.39
69749;BME280;57019;52.354;6.584;2022-12-18T08:00:54;102746.88;;;20.28;29.23
69749;BME280;57019;52.354;6.584;2022-12-18T08:03:26;102744.66;;;20.33;29.44
69749;BME280;57019;52.354;6.584;2022-12-18T08:05:52;102752.13;;;20.28;29.33
69749;BME280;57019;52.354;6.584;2022-12-18T08:08:17;102744.91;;;20.20;29.37
69749;BME280;57019;52.354;6.584;2022-12-18T08:10:42;102738.00;;;20.09;29.38
69749;BME280;57019;52.354;6.584;2022-12-18T08:13:07;102732.72;;;19.99;29.42
69749;BME280;57019;52.354;6.584;2022-12-18T08:15:33;102721.28;;;19.91;29.47
69749;BME280;57019;52.354;6.584;2022-12-18T08:17:58;102723.03;;;19.80;29.60
69749;BME280;57019;52.354;6.584;2022-12-18T08:20:23;102729.31;;;19.68;29.96
69749;BME280;57019;52.354;6.584;2022-12-18T08:22:49;102731.06;;;19.58;29.89
69749;BME280;57019;52.354;6.584;2022-12-18T08:25:14;102728.00;;;19.53;30.17
69749;BME280;57019;52.354;6.584;2022-12-18T08:27:39;102721.50;;;19.47;29.72
69749;BME280;57019;52.354;6.584;2022-12-18T08:30:05;102718.03;;;19.46;30.02
69749;BME280;57019;52.354;6.584;2022-12-18T08:32:31;102722.31;;;19.47;29.84
69749;BME280;57019;52.354;6.584;2022-12-18T08:34:58;102709.94;;;19.49;29.97
69749;BME280;57019;52.354;6.584;2022-12-18T08:37:23;102708.00;;;19.52;29.84
69749;BME280;57019;52.354;6.584;2022-12-18T08:39:48;102697.25;;;19.55;29.63
69749;BME280;57019;52.354;6.584;2022-12-18T08:42:14;102701.97;;;19.61;29.69
69749;BME280;57019;52.354;6.584;2022-12-18T08:44:57;102705.13;;;19.64;29.65
69749;BME280;57019;52.354;6.584;2022-12-18T08:47:23;102715.50;;;19.66;29.72
69749;BME280;57019;52.354;6.584;2022-12-18T08:49:48;102716.63;;;19.73;29.83
69749;BME280;57019;52.354;6.584;2022-12-18T08:52:13;102724.41;;;19.85;29.64
69749;BME280;57019;52.354;6.584;2022-12-18T08:54:39;102706.22;;;19.93;29.71
69749;BME280;57019;52.354;6.584;2022-12-18T08:57:04;102703.06;;;19.99;29.88
69749;BME280;57019;52.354;6.584;2022-12-18T08:59:30;102702.38;;;20.07;29.54
69749;BME280;57019;52.354;6.584;2022-12-18T09:01:56;102697.28;;;20.15;29.63
69749;BME280;57019;52.354;6.584;2022-12-18T09:04:22;102698.81;;;20.17;29.70
69749;BME280;57019;52.354;6.584;2022-12-18T09:06:47;102699.91;;;20.25;29.89
69749;BME280;57019;52.354;6.584;2022-12-18T09:09:14;102691.09;;;20.26;30.26
69749;BME280;57019;52.354;6.584;2022-12-18T09:11:39;102692.47;;;20.20;30.53
69749;BME280;57019;52.354;6.584;2022-12-18T09:14:04;102701.56;;;20.16;30.40
69749;BME280;57019;52.354;6.584;2022-12-18T09:16:30;102704.63;;;20.11;30.29
69749;BME280;57019;52.354;6.584;2022-12-18T09:18:57;102707.34;;;20.00;30.40
69749;BME280;57019;52.354;6.584;2022-12-18T09:21:27;102721.94;;;19.93;30.50
69749;BME280;57019;52.354;6.584;2022-12-18T09:23:54;102715.31;;;19.89;30.69
69749;BME280;57019;52.354;6.584;2022-12-18T09:26:23;102711.44;;;19.83;30.75
69749;BME280;57019;52.354;6.584;2022-12-18T09:28:49;102711.16;;;19.86;30.88
69749;BME280;57019;52.354;6.584;2022-12-18T09:31:16;102715.03;;;19.92;30.82
69749;BME280;57019;52.354;6.584;2022-12-18T09:33:42;102700.03;;;19.94;30.63
69749;BME280;57019;52.354;6.584;2022-12-18T09:36:14;102683.59;;;20.02;30.84
69749;BME280;57019;52.354;6.584;2022-12-18T09:38:40;102681.97;;;20.10;30.43
69749;BME280;57019;52.354;6.584;2022-12-18T09:41:42;102680.59;;;20.16;30.40
69749;BME280;57019;52.354;6.584;2022-12-18T09:46:57;102688.03;;;20.30;31.00
69749;BME280;57019;52.354;6.584;2022-12-18T09:49:26;102684.31;;;20.43;32.04
69749;BME280;57019;52.354;6.584;2022-12-18T09:51:57;102680.44;;;20.47;32.57
69749;BME280;57019;52.354;6.584;2022-12-18T09:54:33;102685.56;;;20.48;33.26
69749;BME280;57019;52.354;6.584;2022-12-18T09:57:00;102692.19;;;20.53;33.33
69749;BME280;57019;52.354;6.584;2022-12-18T09:59:37;102689.69;;;20.41;33.80
69749;BME280;57019;52.354;6.584;2022-12-18T10:02:16;102698.81;;;20.37;33.71
69749;BME280;57019;52.354;6.584;2022-12-18T10:04:42;102694.13;;;20.31;33.72
69749;BME280;57019;52.354;6.584;2022-12-18T10:07:14;102688.59;;;20.24;33.73
69749;BME280;57019;52.354;6.584;2022-12-18T10:09:52;102690.78;;;20.19;33.81
69749;BME280;57019;52.354;6.584;2022-12-18T10:14:59;102665.13;;;20.23;33.34
69749;BME280;57019;52.354;6.584;2022-12-18T10:20:37;102637.66;;;20.27;33.36
69749;BME280;57019;52.354;6.584;2022-12-18T10:28:23;102613.72;;;20.49;33.37
69749;BME280;57019;52.354;6.584;2022-12-18T10:30:49;102614.16;;;20.55;33.11
69749;BME280;57019;52.354;6.584;2022-12-18T10:33:18;102601.72;;;20.57;32.98
69749;BME280;57019;52.354;6.584;2022-12-18T10:35:44;102591.75;;;20.60;32.88
69749;BME280;57019;52.354;6.584;2022-12-18T10:40:57;102592.31;;;20.64;32.98
69749;BME280;57019;52.354;6.584;2022-12-18T10:43:29;102584.84;;;20.59;33.17
69749;BME280;57019;52.354;6.584;2022-12-18T10:48:23;102585.84;;;20.68;32.70
69749;BME280;57019;52.354;6.584;2022-12-18T10:50:50;102588.34;;;20.50;33.24
69749;BME280;57019;52.354;6.584;2022-12-18T10:53:25;102584.06;;;20.39;33.55
69749;BME280;57019;52.354;6.584;2022-12-18T10:55:57;102578.16;;;20.27;33.80
69749;BME280;57019;52.354;6.584;2022-12-18T10:58:29;102566.00;;;20.16;33.92
69749;BME280;57019;52.354;6.584;2022-12-18T11:01:14;102565.19;;;20.16;34.02
69749;BME280;57019;52.354;6.584;2022-12-18T11:04:00;102564.63;;;20.22;33.90
69749;BME280;57019;52.354;6.584;2022-12-18T11:06:26;102564.22;;;20.27;33.66
69749;BME280;57019;52.354;6.584;2022-12-18T11:11:29;102566.81;;;20.37;33.77
69749;BME280;57019;52.354;6.584;2022-12-18T11:14:16;102548.44;;;20.46;33.53
69749;BME280;57019;52.354;6.584;2022-12-18T11:16:46;102555.03;;;20.50;33.21
69749;BME280;57019;52.354;6.584;2022-12-18T11:21:41;102550.75;;;20.49;33.13
69749;BME280;57019;52.354;6.584;2022-12-18T11:24:27;102552.19;;;20.34;33.26
69749;BME280;57019;52.354;6.584;2022-12-18T11:26:54;102536.59;;;20.32;33.53
69749;BME280;57019;52.354;6.584;2022-12-18T11:29:27;102541.69;;;20.34;33.42
69749;BME280;57019;52.354;6.584;2022-12-18T11:37:43;102554.13;;;20.42;33.36
69749;BME280;57019;52.354;6.584;2022-12-18T11:40:16;102543.88;;;20.48;33.08
69749;BME280;57019;52.354;6.584;2022-12-18T11:42:54;102540.00;;;20.53;33.66
69749;BME280;57019;52.354;6.584;2022-12-18T11:45:28;102530.03;;;20.56;33.82
69749;BME280;57019;52.354;6.584;2022-12-18T11:47:58;102524.75;;;20.66;33.91
69749;BME280;57019;52.354;6.584;2022-12-18T11:53:02;102529.16;;;20.75;34.09
69749;BME280;57019;52.354;6.584;2022-12-18T11:55:36;102530.66;;;20.78;33.96
69749;BME280;57019;52.354;6.584;2022-12-18T11:58:12;102521.69;;;20.80;33.95
69749;BME280;57019;52.354;6.584;2022-12-18T12:00:47;102520.63;;;20.73;33.95
69749;BME280;57019;52.354;6.584;2022-12-18T12:03:43;102519.22;;;20.59;33.97
69749;BME280;57019;52.354;6.584;2022-12-18T12:19:29;102483.88;;;21.37;32.61
69749;BME280;57019;52.354;6.584;2022-12-18T12:25:29;102467.53;;;21.61;31.86
69749;BME280;57019;52.354;6.584;2022-12-18T12:28:15;102457.97;;;21.06;32.59
69749;BME280;57019;52.354;6.584;2022-12-18T12:31:05;102454.44;;;20.70;33.14
69749;BME280;57019;52.354;6.584;2022-12-18T12:33:57;102448.06;;;20.44;33.58
69749;BME280;57019;52.354;6.584;2022-12-18T12:36:33;102458.03;;;20.31;33.69
69749;BME280;57019;52.354;6.584;2022-12-18T12:39:06;102452.28;;;20.17;33.84
69749;BME280;57019;52.354;6.584;2022-12-18T12:41:34;102453.69;;;20.12;33.82
69749;BME280;57019;52.354;6.584;2022-12-18T12:44:26;102443.63;;;20.07;33.82
69749;BME280;57019;52.354;6.584;2022-12-18T12:46:56;102442.94;;;20.05;34.00
69749;BME280;57019;52.354;6.584;2022-12-18T12:49:26;102437.53;;;20.07;34.25
69749;BME280;57019;52.354;6.584;2022-12-18T12:52:00;102438.19;;;20.19;34.11
69749;BME280;57019;52.354;6.584;2022-12-18T12:54:28;102437.13;;;20.11;34.38
69749;BME280;57019;52.354;6.584;2022-12-18T13:02:20;102422.53;;;19.99;34.27
69749;BME280;57019;52.354;6.584;2022-12-18T13:05:00;102421.84;;;19.97;35.32
69749;BME280;57019;52.354;6.584;2022-12-18T13:07:40;102408.16;;;20.03;35.49
69749;BME280;57019;52.354;6.584;2022-12-18T13:15:30;102421.09;;;20.14;35.30
69749;BME280;57019;52.354;6.584;2022-12-18T13:20:35;102420.47;;;20.30;34.97
69749;BME280;57019;52.354;6.584;2022-12-18T13:25:44;102415.34;;;20.66;34.54
69749;BME280;57019;52.354;6.584;2022-12-18T13:36:00;102398.50;;;20.59;34.76
69749;BME280;57019;52.354;6.584;2022-12-18T13:43:27;102381.88;;;20.50;34.64
69749;BME280;57019;52.354;6.584;2022-12-18T13:46:00;102381.03;;;20.50;34.79
69749;BME280;57019;52.354;6.584;2022-12-18T13:48:28;102382.16;;;20.47;34.82
69749;BME280;57019;52.354;6.584;2022-12-18T13:51:06;102373.84;;;20.52;34.45
69749;BME280;57019;52.354;6.584;2022-12-18T13:53:44;102359.91;;;20.51;34.73
69749;BME280;57019;52.354;6.584;2022-12-18T13:56:16;102362.91;;;20.57;34.26
69749;BME280;57019;52.354;6.584;2022-12-18T14:01:30;102344.88;;;20.72;34.35
69749;BME280;57019;52.354;6.584;2022-12-18T14:04:25;102349.00;;;20.74;34.26
69749;BME280;57019;52.354;6.584;2022-12-18T14:06:57;102341.50;;;20.79;33.95
69749;BME280;57019;52.354;6.584;2022-12-18T14:09:29;102342.88;;;20.83;34.08
69749;BME280;57019;52.354;6.584;2022-12-18T14:11:56;102342.34;;;20.80;33.81
69749;BME280;57019;52.354;6.584;2022-12-18T14:14:46;102328.31;;;20.71;33.98
69749;BME280;57019;52.354;6.584;2022-12-18T14:17:13;102330.53;;;20.66;34.18
69749;BME280;57019;52.354;6.584;2022-12-18T14:19:48;102328.94;;;20.55;34.10
69749;BME280;57019;52.354;6.584;2022-12-18T14:22:23;102332.00;;;20.50;34.19
69749;BME280;57019;52.354;6.584;2022-12-18T14:27:41;102337.25;;;20.50;34.38
69749;BME280;57019;52.354;6.584;2022-12-18T14:30:27;102338.03;;;20.61;34.08
69749;BME280;57019;52.354;6.584;2022-12-18T14:35:34;102336.03;;;20.73;34.18
69749;BME280;57019;52.354;6.584;2022-12-18T14:40:42;102322.66;;;20.66;34.26
69749;BME280;57019;52.354;6.584;2022-12-18T14:43:11;102324.72;;;20.72;33.88
69749;BME280;57019;52.354;6.584;2022-12-18T14:48:18;102311.50;;;20.64;34.12
69749;BME280;57019;52.354;6.584;2022-12-18T14:50:45;102308.72;;;20.65;34.04
69749;BME280;57019;52.354;6.584;2022-12-18T14:53:22;102291.31;;;20.64;34.12
69749;BME280;57019;52.354;6.584;2022-12-18T14:55:49;102297.94;;;20.68;33.84
69749;BME280;57019;52.354;6.584;2022-12-18T14:58:17;102294.56;;;20.76;34.07
69749;BME280;57019;52.354;6.584;2022-12-18T15:00:43;102290.28;;;20.75;33.83
69749;BME280;57019;52.354;6.584;2022-12-18T15:03:09;102290.66;;;20.80;33.82
69749;BME280;57019;52.354;6.584;2022-12-18T15:05:35;102286.78;;;20.84;33.78
69749;BME280;57019;52.354;6.584;2022-12-18T15:08:01;102300.88;;;20.83;33.64
69749;BME280;57019;52.354;6.584;2022-12-18T15:10:33;102295.22;;;20.78;33.81
69749;BME280;57019;52.354;6.584;2022-12-18T15:23:33;102271.19;;;20.55;33.93